Follow

G44って台風かよw

RJBB 300630Z 19030G44KT 4000 R24L/1200VP2000U R24R/P2000N SHRA BR FEW005 SCT015 BKN030 25/23 Q0997 NOSIG

Sign in to participate in the conversation
hikoukidon

個人運用サーバです。 Private server.